Time;durP1;ratioP1;P1;durP2;ratioP2;P2;SDS_P1;SDS_P2;PMS_P1;PMS_P2;Temp;Humidity;BMP_temperature;BMP_pressure;BME280_temperature;BME280_humidity;BME280_pressure;Samples;Min_cycle;Max_cycle;Signal;HPM_P1;HPM_P2
2023/05/14 00:02:23;;;;;;;7.28;3.70;;;;;;;;;;4992533;28;20166;-62
2023/05/14 00:04:53;;;;;;;8.93;4.07;;;;;;;;;;4988915;28;20054;-62
2023/05/14 00:07:29;;;;;;;9.55;4.07;;;;;;;;;;4991637;28;20085;-62
2023/05/14 00:09:59;;;;;;;12.77;3.72;;;;;;;;;;4992536;28;20146;-62
2023/05/14 00:12:31;;;;;;;11.45;4.20;;;;;;;;;;4992612;28;20525;-62
2023/05/14 00:15:01;;;;;;;9.48;4.25;;;;;;;;;;4976174;28;20054;-62
2023/05/14 00:17:31;;;;;;;10.45;4.30;;;;;;;;;;4960717;28;20065;-62
2023/05/14 00:20:01;;;;;;;9.90;4.32;;;;;;;;;;4992387;28;20057;-63
2023/05/14 00:22:35;;;;;;;12.90;4.60;;;;;;;;;;4959694;28;20051;-63
2023/05/14 00:25:07;;;;;;;9.15;4.38;;;;;;;;;;4992535;28;20061;-63
2023/05/14 00:27:38;;;;;;;;;;;;;;;;;;4992738;28;20051;-63
2023/05/14 00:30:08;;;;;;;11.32;3.90;;;;;;;;;;4937465;29;19923;-63
2023/05/14 00:32:40;;;;;;;;;;;;;;;;;;4904277;29;20051;-63
2023/05/14 00:35:10;;;;;;;13.15;3.92;;;;;;;;;;4896147;29;19923;-64
2023/05/14 00:37:40;;;;;;;10.50;4.53;;;;;;;;;;4877396;29;20056;-62
2023/05/14 00:40:11;;;;;;;9.50;4.38;;;;;;;;;;4862510;29;20556;-62
2023/05/14 00:42:42;;;;;;;10.57;4.88;;;;;;;;;;4898433;29;20060;-63
2023/05/14 00:45:13;;;;;;;10.73;4.38;;;;;;;;;;4914958;29;20170;-63
2023/05/14 00:47:43;;;;;;;9.60;4.60;;;;;;;;;;4899326;29;20064;-63
2023/05/14 00:50:15;;;;;;;13.23;4.88;;;;;;;;;;4867975;29;20056;-62
2023/05/14 00:52:47;;;;;;;9.88;4.50;;;;;;;;;;4895814;29;20060;-62
2023/05/14 00:55:19;;;;;;;10.77;4.65;;;;;;;;;;4864824;29;20181;-63
2023/05/14 00:57:50;;;;;;;12.93;4.45;;;;;;;;;;4895743;29;20539;-63
2023/05/14 01:00:21;;;;;;;12.60;5.30;;;;;;;;;;4876840;29;20057;-63
2023/05/14 01:02:52;;;;;;;12.85;5.05;;;;;;;;;;4876760;29;20057;-63
2023/05/14 01:05:26;;;;;;;10.57;4.93;;;;;;;;;;4878944;29;20064;-63
2023/05/14 01:08:26;;;;;;;13.63;4.65;;;;;;;;;;4895438;29;20048;-63
2023/05/14 01:11:11;;;;;;;12.35;4.55;;;;;;;;;;4924218;29;20063;-63
2023/05/14 01:14:02;;;;;;;12.05;4.43;;;;;;;;;;4914375;29;20390;-63
2023/05/14 01:16:36;;;;;;;11.23;5.25;;;;;;;;;;4895464;29;20063;-62
2023/05/14 01:19:20;;;;;;;11.70;5.13;;;;;;;;;;4875536;29;20053;-62
2023/05/14 01:21:50;;;;;;;12.40;5.15;;;;;;;;;;4898461;29;20063;-62
2023/05/14 01:24:20;;;;;;;10.82;5.38;;;;;;;;;;4867532;29;20048;-63
2023/05/14 01:26:51;;;;;;;12.13;5.35;;;;;;;;;;4867324;29;20100;-62
2023/05/14 01:29:22;;;;;;;13.48;5.60;;;;;;;;;;4913026;29;20060;-63
2023/05/14 01:31:55;;;;;;;13.05;5.03;;;;;;;;;;4895339;29;20060;-63
2023/05/14 01:34:30;;;;;;;13.02;5.30;;;;;;;;;;4895221;29;20565;-63
2023/05/14 01:37:01;;;;;;;11.75;5.63;;;;;;;;;;4898423;29;20083;-62
2023/05/14 01:39:32;;;;;;;11.77;4.80;;;;;;;;;;4894643;29;20079;-62
2023/05/14 01:42:04;;;;;;;13.25;5.03;;;;;;;;;;4798344;29;20469;-63
2023/05/14 01:44:35;;;;;;;12.77;5.45;;;;;;;;;;4857697;29;20068;-63
2023/05/14 01:47:05;;;;;;;14.32;5.05;;;;;;;;;;4821071;29;20054;-63
2023/05/14 01:49:36;;;;;;;17.17;5.93;;;;;;;;;;4791232;29;20058;-63
2023/05/14 01:52:07;;;;;;;16.00;5.70;;;;;;;;;;4817479;29;20077;-62
2023/05/14 01:54:38;;;;;;;11.63;5.38;;;;;;;;;;4790853;29;20054;-63
2023/05/14 01:57:08;;;;;;;12.77;5.07;;;;;;;;;;4814607;29;20062;-63
2023/05/14 01:59:38;;;;;;;10.55;5.07;;;;;;;;;;4790387;29;20197;-62
2023/05/14 02:02:08;;;;;;;9.38;5.13;;;;;;;;;;4790535;29;20096;-63
2023/05/14 02:04:39;;;;;;;15.05;6.10;;;;;;;;;;4800686;29;20074;-63
2023/05/14 02:07:09;;;;;;;13.50;5.40;;;;;;;;;;4784606;29;20513;-63
2023/05/14 02:09:40;;;;;;;12.98;5.13;;;;;;;;;;4812851;29;20063;-62
2023/05/14 02:12:12;;;;;;;11.48;4.72;;;;;;;;;;4802471;29;20416;-62
2023/05/14 02:14:43;;;;;;;11.02;5.35;;;;;;;;;;4772325;29;20457;-62
2023/05/14 02:17:16;;;;;;;12.10;5.25;;;;;;;;;;4812113;29;20512;-62
2023/05/14 02:19:47;;;;;;;15.02;5.95;;;;;;;;;;4840210;29;20418;-62
2023/05/14 02:22:17;;;;;;;13.10;5.57;;;;;;;;;;4857032;29;20054;-63
2023/05/14 02:24:48;;;;;;;15.55;5.72;;;;;;;;;;4866532;29;20057;-65
2023/05/14 02:27:20;;;;;;;12.13;6.00;;;;;;;;;;4876322;29;20424;-62
2023/05/14 02:29:50;;;;;;;14.35;5.75;;;;;;;;;;4863512;29;20528;-64
2023/05/14 02:32:21;;;;;;;13.18;5.90;;;;;;;;;;4894199;29;20048;-61
2023/05/14 02:34:52;;;;;;;12.35;5.40;;;;;;;;;;4825483;29;20200;-63
2023/05/14 02:37:22;;;;;;;11.20;5.70;;;;;;;;;;4838463;29;20053;-62
2023/05/14 02:39:52;;;;;;;14.15;6.53;;;;;;;;;;4856746;29;20087;-62
2023/05/14 02:42:23;;;;;;;18.52;6.05;;;;;;;;;;4856968;29;20057;-63
2023/05/14 02:44:53;;;;;;;12.25;5.80;;;;;;;;;;4857030;29;20073;-61
2023/05/14 02:47:23;;;;;;;15.25;5.88;;;;;;;;;;4872246;29;20058;-61
2023/05/14 02:49:53;;;;;;;14.63;5.93;;;;;;;;;;4856931;29;20075;-63
2023/05/14 02:52:24;;;;;;;10.65;5.53;;;;;;;;;;4856741;29;20061;-62
2023/05/14 02:54:55;;;;;;;12.88;6.00;;;;;;;;;;4841176;29;20092;-65
2023/05/14 02:57:25;;;;;;;15.45;6.03;;;;;;;;;;4872101;29;20510;-62
2023/05/14 02:59:55;;;;;;;20.50;6.00;;;;;;;;;;4856966;29;20061;-62
2023/05/14 03:02:26;;;;;;;15.43;6.38;;;;;;;;;;4875082;29;20510;-62
2023/05/14 03:04:57;;;;;;;13.52;6.15;;;;;;;;;;4893636;29;20410;-63
2023/05/14 03:07:27;;;;;;;14.68;5.68;;;;;;;;;;4859563;29;20061;-63
2023/05/14 03:09:59;;;;;;;13.45;6.15;;;;;;;;;;4892897;29;20064;-62
2023/05/14 03:12:30;;;;;;;15.25;6.85;;;;;;;;;;4868777;29;20052;-63
2023/05/14 03:15:00;;;;;;;17.17;6.72;;;;;;;;;;4903606;29;20048;-63
2023/05/14 03:17:31;;;;;;;13.55;6.25;;;;;;;;;;4865659;29;20387;-63
2023/05/14 03:20:02;;;;;;;15.27;6.68;;;;;;;;;;4838098;29;20046;-63
2023/05/14 03:22:32;;;;;;;20.13;7.78;;;;;;;;;;4838087;29;20062;-63
2023/05/14 03:25:02;;;;;;;15.85;6.40;;;;;;;;;;4838234;29;20537;-62
2023/05/14 03:27:33;;;;;;;15.95;6.25;;;;;;;;;;4871222;29;20616;-62
2023/05/14 03:30:04;;;;;;;14.90;6.40;;;;;;;;;;4874690;29;20061;-62
2023/05/14 03:32:34;;;;;;;13.50;5.93;;;;;;;;;;4874686;29;20060;-62
2023/05/14 03:35:05;;;;;;;15.07;6.95;;;;;;;;;;4856140;29;20060;-62
2023/05/14 03:37:35;;;;;;;15.63;6.55;;;;;;;;;;4856335;29;20058;-62
2023/05/14 03:40:06;;;;;;;16.70;6.00;;;;;;;;;;4856519;29;20061;-63
2023/05/14 03:42:36;;;;;;;12.95;5.50;;;;;;;;;;4849890;29;20053;-62
2023/05/14 03:45:07;;;;;;;13.40;6.32;;;;;;;;;;4832180;29;20062;-62
2023/05/14 03:47:37;;;;;;;16.10;6.38;;;;;;;;;;4807928;29;20054;-62
2023/05/14 03:50:08;;;;;;;17.77;6.30;;;;;;;;;;4859922;29;20045;-64
2023/05/14 03:52:39;;;;;;;14.93;6.40;;;;;;;;;;4874310;29;20057;-62
2023/05/14 03:55:10;;;;;;;16.92;6.68;;;;;;;;;;4871612;29;20409;-63
2023/05/14 03:57:40;;;;;;;13.82;5.93;;;;;;;;;;4872160;29;20543;-62
2023/05/14 04:00:12;;;;;;;12.43;5.80;;;;;;;;;;4878067;29;20477;-62
2023/05/14 04:02:44;;;;;;;12.25;6.03;;;;;;;;;;4878549;29;20053;-62
2023/05/14 04:05:15;;;;;;;12.82;6.07;;;;;;;;;;4855924;29;20053;-62
2023/05/14 04:07:46;;;;;;;15.82;6.70;;;;;;;;;;4833260;29;20057;-62
2023/05/14 04:10:16;;;;;;;13.95;6.30;;;;;;;;;;4841015;29;20058;-62
2023/05/14 04:12:46;;;;;;;15.65;5.78;;;;;;;;;;4822213;29;20062;-63
2023/05/14 04:15:18;;;;;;;15.70;6.32;;;;;;;;;;4840999;29;20062;-62
2023/05/14 04:17:48;;;;;;;14.32;6.22;;;;;;;;;;4840707;29;20073;-63
2023/05/14 04:20:18;;;;;;;14.48;5.75;;;;;;;;;;4849780;29;20167;-63
2023/05/14 04:22:48;;;;;;;15.30;6.90;;;;;;;;;;4810433;29;20182;-62
2023/05/14 04:25:19;;;;;;;13.32;6.35;;;;;;;;;;4810094;29;20053;-63
2023/05/14 04:27:49;;;;;;;14.13;6.47;;;;;;;;;;4831045;29;20077;-63
2023/05/14 04:30:19;;;;;;;14.10;6.40;;;;;;;;;;4822287;29;20051;-62
2023/05/14 04:32:50;;;;;;;14.75;6.28;;;;;;;;;;4846649;29;20058;-63
2023/05/14 04:35:20;;;;;;;16.88;7.00;;;;;;;;;;4831688;29;20059;-62
2023/05/14 04:37:53;;;;;;;12.02;6.03;;;;;;;;;;4784002;29;20508;-65
2023/05/14 04:40:23;;;;;;;15.65;6.45;;;;;;;;;;4822410;29;20070;-64
2023/05/14 04:42:53;;;;;;;14.70;6.63;;;;;;;;;;4854724;29;20538;-62
2023/05/14 04:45:23;;;;;;;15.77;6.47;;;;;;;;;;4843381;29;20751;-62
2023/05/14 04:47:53;;;;;;;14.30;6.50;;;;;;;;;;4843339;29;20045;-63
2023/05/14 04:50:24;;;;;;;14.55;5.78;;;;;;;;;;4886101;29;20056;-63
2023/05/14 04:52:54;;;;;;;14.68;6.35;;;;;;;;;;4942727;29;20055;-62
2023/05/14 04:55:25;;;;;;;12.50;6.40;;;;;;;;;;4921021;29;20070;-62
2023/05/14 04:57:55;;;;;;;13.32;6.22;;;;;;;;;;4981857;28;20080;-62
2023/05/14 05:00:25;;;;;;;15.43;5.93;;;;;;;;;;5013838;28;20049;-62
2023/05/14 05:02:55;;;;;;;11.80;5.65;;;;;;;;;;4948254;28;20057;-62
2023/05/14 05:05:26;;;;;;;12.27;5.93;;;;;;;;;;5013440;28;20038;-62
2023/05/14 05:07:56;;;;;;;14.68;6.43;;;;;;;;;;5024372;28;20370;-62
2023/05/14 05:10:26;;;;;;;13.65;5.53;;;;;;;;;;5033213;28;20045;-62
2023/05/14 05:12:56;;;;;;;13.90;5.78;;;;;;;;;;5033482;28;20072;-62
2023/05/14 05:15:26;;;;;;;12.57;5.57;;;;;;;;;;5033147;28;20397;-62
2023/05/14 05:17:56;;;;;;;11.27;5.63;;;;;;;;;;5033144;28;20038;-62
2023/05/14 05:20:27;;;;;;;14.52;5.65;;;;;;;;;;4998059;28;20049;-62
2023/05/14 05:22:58;;;;;;;13.82;5.78;;;;;;;;;;4934879;28;20512;-62
2023/05/14 05:25:28;;;;;;;15.02;5.72;;;;;;;;;;5014680;28;20551;-62
2023/05/14 05:27:59;;;;;;;14.10;5.43;;;;;;;;;;4997926;28;20590;-62
2023/05/14 05:30:30;;;;;;;14.73;5.82;;;;;;;;;;5032823;28;20056;-61
2023/05/14 05:33:00;;;;;;;14.32;6.07;;;;;;;;;;5033067;28;20512;-62
2023/05/14 05:35:31;;;;;;;14.52;5.53;;;;;;;;;;5033006;28;20371;-63
2023/05/14 05:38:02;;;;;;;13.48;6.00;;;;;;;;;;5033052;28;20042;-62
2023/05/14 05:40:32;;;;;;;10.85;5.20;;;;;;;;;;4974797;28;20376;-63
2023/05/14 05:43:02;;;;;;;15.70;6.10;;;;;;;;;;4990836;28;20058;-62
2023/05/14 05:45:34;;;;;;;11.75;5.38;;;;;;;;;;4942151;28;20050;-63
2023/05/14 05:48:04;;;;;;;12.70;5.40;;;;;;;;;;4990892;28;20046;-62
2023/05/14 05:50:35;;;;;;;12.32;5.10;;;;;;;;;;4942585;28;20497;-63
2023/05/14 05:53:05;;;;;;;11.27;5.18;;;;;;;;;;4942492;28;20077;-63
2023/05/14 05:55:36;;;;;;;14.73;5.90;;;;;;;;;;4958291;28;20063;-64
2023/05/14 05:58:06;;;;;;;11.73;5.28;;;;;;;;;;4990834;28;20462;-62
2023/05/14 06:00:36;;;;;;;12.32;6.03;;;;;;;;;;4990559;28;20406;-63
2023/05/14 06:03:06;;;;;;;11.13;5.30;;;;;;;;;;4990208;28;20058;-63
2023/05/14 06:05:36;;;;;;;11.98;5.55;;;;;;;;;;4990097;28;20126;-63
2023/05/14 06:08:06;;;;;;;14.05;5.70;;;;;;;;;;4990324;28;20576;-62
2023/05/14 06:10:36;;;;;;;11.75;4.75;;;;;;;;;;4990668;28;20498;-62
2023/05/14 06:13:06;;;;;;;12.65;6.35;;;;;;;;;;4974373;28;20050;-62
2023/05/14 06:15:37;;;;;;;14.50;6.47;;;;;;;;;;4942343;28;20055;-62
2023/05/14 06:18:07;;;;;;;10.57;5.20;;;;;;;;;;5010465;28;20053;-62
2023/05/14 06:20:37;;;;;;;10.60;4.93;;;;;;;;;;4943195;28;20050;-62
2023/05/14 06:23:08;;;;;;;12.00;5.07;;;;;;;;;;4990311;28;20059;-63
2023/05/14 06:25:38;;;;;;;10.77;5.32;;;;;;;;;;4990201;28;20062;-63
2023/05/14 06:28:08;;;;;;;10.10;4.72;;;;;;;;;;4970428;28;20055;-62
2023/05/14 06:30:38;;;;;;;12.90;5.75;;;;;;;;;;4954430;28;20526;-63
2023/05/14 06:33:08;;;;;;;12.68;5.57;;;;;;;;;;4970664;28;20066;-63
2023/05/14 06:35:38;;;;;;;11.68;5.78;;;;;;;;;;4970596;28;20059;-63
2023/05/14 06:38:08;;;;;;;11.73;5.43;;;;;;;;;;4938272;28;20055;-64
2023/05/14 06:40:38;;;;;;;11.98;5.63;;;;;;;;;;4970752;28;20070;-63
2023/05/14 06:43:08;;;;;;;10.68;4.82;;;;;;;;;;4970616;28;20055;-63
2023/05/14 06:45:38;;;;;;;10.07;4.72;;;;;;;;;;4938255;28;20066;-63
2023/05/14 06:48:08;;;;;;;11.18;4.93;;;;;;;;;;4970504;28;20059;-62
2023/05/14 06:50:39;;;;;;;10.15;4.40;;;;;;;;;;4970337;28;20412;-63
2023/05/14 06:53:09;;;;;;;9.43;4.40;;;;;;;;;;4931556;29;20058;-63
2023/05/14 06:55:41;;;;;;;11.20;4.53;;;;;;;;;;4931856;29;20066;-63
2023/05/14 06:58:11;;;;;;;12.35;4.70;;;;;;;;;;4933669;28;20538;-63
2023/05/14 07:00:42;;;;;;;11.10;4.60;;;;;;;;;;4970373;28;20054;-63
2023/05/14 07:03:12;;;;;;;12.18;4.68;;;;;;;;;;4969926;28;20046;-63
2023/05/14 07:05:45;;;;;;;10.95;4.75;;;;;;;;;;4963719;28;20458;-63
2023/05/14 07:08:15;;;;;;;11.00;5.00;;;;;;;;;;4989370;28;20058;-64
2023/05/14 07:10:45;;;;;;;14.35;5.40;;;;;;;;;;4957139;28;20051;-63
2023/05/14 07:13:15;;;;;;;14.27;4.65;;;;;;;;;;4953795;28;20066;-63
2023/05/14 07:15:45;;;;;;;10.73;5.13;;;;;;;;;;4970401;28;20062;-63
2023/05/14 07:18:16;;;;;;;12.57;5.13;;;;;;;;;;4973853;28;20054;-63
2023/05/14 07:20:46;;;;;;;11.65;4.78;;;;;;;;;;4974276;28;20074;-63
2023/05/14 07:23:16;;;;;;;12.57;4.55;;;;;;;;;;4973772;28;20055;-62
2023/05/14 07:25:48;;;;;;;10.50;4.68;;;;;;;;;;4941778;28;20484;-63
2023/05/14 07:28:17;;;;;;;11.70;4.68;;;;;;;;;;4973955;28;20058;-63
2023/05/14 07:30:47;;;;;;;10.38;4.57;;;;;;;;;;4932143;29;20058;-63
2023/05/14 07:33:17;;;;;;;11.00;4.30;;;;;;;;;;4954510;29;20051;-63
2023/05/14 07:35:47;;;;;;;10.50;4.78;;;;;;;;;;4938377;29;20074;-63
2023/05/14 07:38:19;;;;;;;11.07;4.70;;;;;;;;;;4891395;29;20054;-63
2023/05/14 07:40:49;;;;;;;10.57;4.88;;;;;;;;;;4954370;29;20060;-61
2023/05/14 07:43:19;;;;;;;10.90;4.65;;;;;;;;;;4954214;29;20547;-62
2023/05/14 07:45:49;;;;;;;9.18;3.95;;;;;;;;;;4954432;29;20404;-63
2023/05/14 07:48:19;;;;;;;12.25;4.78;;;;;;;;;;4954242;29;20074;-63
2023/05/14 07:50:50;;;;;;;10.15;4.32;;;;;;;;;;4972886;28;20054;-64
2023/05/14 07:53:21;;;;;;;9.77;4.85;;;;;;;;;;4961602;28;20058;-63
2023/05/14 07:55:51;;;;;;;9.13;3.95;;;;;;;;;;5012760;28;20425;-64
2023/05/14 07:58:22;;;;;;;11.13;5.15;;;;;;;;;;4983576;28;20060;-64
2023/05/14 08:00:52;;;;;;;9.68;4.82;;;;;;;;;;5034661;28;20030;-63
2023/05/14 08:03:23;;;;;;;12.40;5.05;;;;;;;;;;4999380;28;20053;-62
2023/05/14 08:05:53;;;;;;;11.32;4.32;;;;;;;;;;4999475;28;20492;-64
2023/05/14 08:08:23;;;;;;;10.55;4.65;;;;;;;;;;5034259;28;20057;-63
2023/05/14 08:10:53;;;;;;;10.77;4.18;;;;;;;;;;5034414;28;20177;-63
2023/05/14 08:13:25;;;;;;;11.15;4.65;;;;;;;;;;5034488;28;20053;-63
2023/05/14 08:15:55;;;;;;;13.30;5.28;;;;;;;;;;4999710;28;20064;-63
2023/05/14 08:18:26;;;;;;;11.40;4.70;;;;;;;;;;4983024;28;20413;-64
2023/05/14 08:20:56;;;;;;;10.85;4.30;;;;;;;;;;4980236;28;20058;-61
2023/05/14 08:23:26;;;;;;;11.23;4.60;;;;;;;;;;5011944;28;20058;-61
2023/05/14 08:25:56;;;;;;;12.07;5.07;;;;;;;;;;4979372;28;20046;-61
2023/05/14 08:28:26;;;;;;;9.65;4.85;;;;;;;;;;4978558;28;20060;-61
2023/05/14 08:30:55;;;;;;;9.25;4.32;;;;;;;;;;4995338;28;20050;-63
2023/05/14 08:33:26;;;;;;;9.63;4.18;;;;;;;;;;4995731;28;20061;-61
2023/05/14 08:35:59;;;;;;;9.70;4.22;;;;;;;;;;4995574;28;20050;-63
2023/05/14 08:38:29;;;;;;;12.00;3.83;;;;;;;;;;4963003;28;20049;-61
2023/05/14 08:40:59;;;;;;;11.32;4.50;;;;;;;;;;5011711;28;20540;-61
2023/05/14 08:43:43;;;;;;;11.63;4.32;;;;;;;;;;4978903;28;20477;-62
2023/05/14 08:46:15;;;;;;;9.75;4.13;;;;;;;;;;4963217;28;20061;-61
2023/05/14 08:48:51;;;;;;;10.15;4.45;;;;;;;;;;5011540;28;20049;-61
2023/05/14 08:51:21;;;;;;;9.57;4.30;;;;;;;;;;4998690;28;20061;-61
2023/05/14 08:53:51;;;;;;;9.40;4.95;;;;;;;;;;4983700;28;20076;-61
2023/05/14 08:56:22;;;;;;;9.55;4.10;;;;;;;;;;4998715;28;20061;-61
2023/05/14 08:58:52;;;;;;;11.75;5.07;;;;;;;;;;4984123;28;20045;-62
2023/05/14 09:01:23;;;;;;;8.93;4.40;;;;;;;;;;4982225;28;20049;-62
2023/05/14 09:03:54;;;;;;;11.98;4.65;;;;;;;;;;4998261;28;20049;-62
2023/05/14 09:06:25;;;;;;;9.93;5.57;;;;;;;;;;4967472;28;20382;-61
2023/05/14 09:08:56;;;;;;;9.30;4.13;;;;;;;;;;4984195;28;20061;-61
2023/05/14 09:11:27;;;;;;;14.52;4.28;;;;;;;;;;5033243;28;20052;-62
2023/05/14 09:13:58;;;;;;;10.98;4.60;;;;;;;;;;5033385;28;20045;-62
2023/05/14 09:16:28;;;;;;;11.18;4.30;;;;;;;;;;5033477;28;20049;-63
2023/05/14 09:18:58;;;;;;;9.00;4.43;;;;;;;;;;5033026;28;20049;-62
2023/05/14 09:21:30;;;;;;;10.25;4.18;;;;;;;;;;4998344;28;20498;-62
2023/05/14 09:24:01;;;;;;;11.48;4.53;;;;;;;;;;4983702;28;20065;-62
2023/05/14 09:26:33;;;;;;;16.23;4.57;;;;;;;;;;5033227;28;20389;-62
2023/05/14 09:29:03;;;;;;;10.23;4.25;;;;;;;;;;4981651;28;20045;-62
2023/05/14 09:31:36;;;;;;;10.45;4.88;;;;;;;;;;4981968;28;20065;-62
2023/05/14 09:34:06;;;;;;;10.18;4.70;;;;;;;;;;4983266;28;20057;-62
2023/05/14 09:36:37;;;;;;;10.80;4.63;;;;;;;;;;4990923;28;20057;-62
2023/05/14 09:39:08;;;;;;;12.02;5.07;;;;;;;;;;4974547;28;20082;-61
2023/05/14 09:41:39;;;;;;;13.98;5.15;;;;;;;;;;4942416;28;20050;-61
2023/05/14 09:44:12;;;;;;;10.55;4.28;;;;;;;;;;4943465;28;20054;-64
2023/05/14 09:46:42;;;;;;;11.82;4.57;;;;;;;;;;4990920;28;20556;-63
2023/05/14 09:49:12;;;;;;;9.38;4.20;;;;;;;;;;4974716;28;20410;-64
2023/05/14 09:51:43;;;;;;;11.10;4.82;;;;;;;;;;4990759;28;20054;-62
2023/05/14 09:54:13;;;;;;;10.23;4.10;;;;;;;;;;4974249;28;20409;-61
2023/05/14 09:56:44;;;;;;;9.25;4.07;;;;;;;;;;4990372;28;20050;-62
2023/05/14 09:59:14;;;;;;;7.82;3.97;;;;;;;;;;4958159;28;20054;-62
2023/05/14 10:01:45;;;;;;;12.55;4.90;;;;;;;;;;4990468;28;20062;-62
2023/05/14 10:04:15;;;;;;;10.90;3.92;;;;;;;;;;4990343;28;20057;-62
2023/05/14 10:06:50;;;;;;;10.98;4.60;;;;;;;;;;4957907;28;20085;-62
2023/05/14 10:09:25;;;;;;;12.25;4.70;;;;;;;;;;4990848;28;20160;-64
2023/05/14 10:12:00;;;;;;;11.88;4.38;;;;;;;;;;4940171;28;20507;-63
2023/05/14 10:14:39;;;;;;;11.75;4.80;;;;;;;;;;4982577;28;20402;-62
2023/05/14 10:17:17;;;;;;;16.00;5.05;;;;;;;;;;4926733;28;20058;-62
2023/05/14 10:19:52;;;;;;;11.80;5.20;;;;;;;;;;4974409;28;20058;-62
2023/05/14 10:22:26;;;;;;;15.10;4.50;;;;;;;;;;4941849;28;20093;-61
2023/05/14 10:24:57;;;;;;;10.02;4.25;;;;;;;;;;4989909;28;20094;-61
2023/05/14 10:27:27;;;;;;;11.25;4.70;;;;;;;;;;4996267;28;20410;-61
2023/05/14 10:29:57;;;;;;;11.60;4.30;;;;;;;;;;5009495;28;20065;-61
2023/05/14 10:32:31;;;;;;;9.98;4.85;;;;;;;;;;5009680;28;20046;-61
2023/05/14 10:35:14;;;;;;;10.73;4.50;;;;;;;;;;4961115;28;20049;-61
2023/05/14 10:37:45;;;;;;;11.30;4.90;;;;;;;;;;4993436;28;20402;-62
2023/05/14 10:40:17;;;;;;;10.55;4.32;;;;;;;;;;4993267;28;20548;-62
2023/05/14 10:42:48;;;;;;;9.32;4.38;;;;;;;;;;4977390;28;20150;-61
2023/05/14 10:45:18;;;;;;;13.70;4.60;;;;;;;;;;4976729;28;20061;-61
2023/05/14 10:47:48;;;;;;;10.40;4.22;;;;;;;;;;4976922;28;20061;-61
2023/05/14 10:50:22;;;;;;;9.10;4.25;;;;;;;;;;4978139;28;20071;-61
2023/05/14 10:52:54;;;;;;;11.82;4.75;;;;;;;;;;4926108;28;20043;-61
2023/05/14 10:55:24;;;;;;;12.50;5.55;;;;;;;;;;4973538;28;20050;-62
2023/05/14 10:58:00;;;;;;;12.98;5.82;;;;;;;;;;4957404;28;20545;-61
2023/05/14 11:00:33;;;;;;;14.35;7.38;;;;;;;;;;4973657;28;20414;-62
2023/05/14 11:03:07;;;;;;;16.38;8.18;;;;;;;;;;4989424;28;20519;-62
2023/05/14 11:05:40;;;;;;;20.85;7.80;;;;;;;;;;4957462;28;20058;-62
2023/05/14 11:08:11;;;;;;;19.45;8.30;;;;;;;;;;4972988;28;20058;-62
2023/05/14 11:10:42;;;;;;;19.08;7.53;;;;;;;;;;4934529;29;20066;-62
2023/05/14 11:13:12;;;;;;;13.98;7.32;;;;;;;;;;4918835;29;20054;-62
2023/05/14 11:15:46;;;;;;;14.73;6.80;;;;;;;;;;4950814;29;20059;-62
2023/05/14 11:18:27;;;;;;;15.23;6.63;;;;;;;;;;4919024;29;20066;-64
2023/05/14 11:21:00;;;;;;;14.63;7.05;;;;;;;;;;4950793;29;20381;-62
2023/05/14 11:23:31;;;;;;;14.40;6.80;;;;;;;;;;4903169;29;20055;-62
2023/05/14 11:26:01;;;;;;;15.25;6.93;;;;;;;;;;4950815;29;20051;-62
2023/05/14 11:28:32;;;;;;;14.00;7.22;;;;;;;;;;4903096;29;20055;-63
2023/05/14 11:31:02;;;;;;;15.15;6.85;;;;;;;;;;4948142;28;20090;-63
2023/05/14 11:33:32;;;;;;;15.23;7.75;;;;;;;;;;4954037;28;20069;-63
2023/05/14 11:36:03;;;;;;;15.02;7.22;;;;;;;;;;4954312;28;20529;-63
2023/05/14 11:38:33;;;;;;;16.58;8.38;;;;;;;;;;4938519;28;20079;-62
2023/05/14 11:41:04;;;;;;;15.65;7.72;;;;;;;;;;4922378;28;20066;-63
2023/05/14 11:43:36;;;;;;;16.77;7.10;;;;;;;;;;4969893;28;20510;-62
2023/05/14 11:46:06;;;;;;;14.38;7.35;;;;;;;;;;4969860;28;20083;-63
2023/05/14 11:48:37;;;;;;;14.25;6.45;;;;;;;;;;4982384;28;20520;-62
2023/05/14 11:51:07;;;;;;;14.80;6.53;;;;;;;;;;5030853;28;20037;-62
2023/05/14 11:53:37;;;;;;;13.20;7.03;;;;;;;;;;4949167;28;20416;-62
2023/05/14 11:56:07;;;;;;;12.40;7.00;;;;;;;;;;4979894;28;20417;-62
2023/05/14 11:58:38;;;;;;;12.82;5.93;;;;;;;;;;4980032;28;20062;-63
2023/05/14 12:01:13;;;;;;;11.80;6.20;;;;;;;;;;4995689;28;20412;-62
2023/05/14 12:03:43;;;;;;;16.30;7.75;;;;;;;;;;5011550;28;20058;-63
2023/05/14 12:06:13;;;;;;;14.60;8.27;;;;;;;;;;4932275;28;20064;-61
2023/05/14 12:08:43;;;;;;;19.13;9.00;;;;;;;;;;4979419;28;20637;-63
2023/05/14 12:11:14;;;;;;;18.45;9.52;;;;;;;;;;4979661;28;20089;-64
2023/05/14 12:13:44;;;;;;;21.60;10.00;;;;;;;;;;4980389;28;20046;-63
2023/05/14 12:16:16;;;;;;;19.90;9.43;;;;;;;;;;4992152;28;20043;-62
2023/05/14 12:18:46;;;;;;;35.63;13.35;;;;;;;;;;4992634;28;20159;-62
2023/05/14 12:21:17;;;;;;;24.17;11.40;;;;;;;;;;4943943;28;20062;-62
2023/05/14 12:23:47;;;;;;;25.20;11.27;;;;;;;;;;4992322;28;20491;-62
2023/05/14 12:26:17;;;;;;;22.80;9.88;;;;;;;;;;4992271;28;20046;-62
2023/05/14 12:28:47;;;;;;;22.83;9.23;;;;;;;;;;4976015;28;20782;-62
2023/05/14 12:31:18;;;;;;;17.05;7.97;;;;;;;;;;4943237;28;20049;-62
2023/05/14 12:33:48;;;;;;;17.25;8.13;;;;;;;;;;4992111;28;20186;-64
2023/05/14 12:36:18;;;;;;;17.90;8.35;;;;;;;;;;4992026;28;20430;-62
2023/05/14 12:38:56;;;;;;;18.35;7.70;;;;;;;;;;4992123;28;20051;-62
2023/05/14 12:41:26;;;;;;;16.17;8.07;;;;;;;;;;4991941;28;20061;-62
2023/05/14 12:43:57;;;;;;;12.35;6.45;;;;;;;;;;4943400;28;20051;-62
2023/05/14 12:46:27;;;;;;;21.35;8.00;;;;;;;;;;4944843;28;20742;-62
2023/05/14 12:48:58;;;;;;;14.60;7.70;;;;;;;;;;4991799;28;20059;-62
2023/05/14 12:51:28;;;;;;;17.98;7.95;;;;;;;;;;4975675;28;20058;-62
2023/05/14 12:53:58;;;;;;;14.15;7.25;;;;;;;;;;4989669;28;20057;-62
2023/05/14 12:56:30;;;;;;;15.02;7.55;;;;;;;;;;4982217;28;20498;-62
2023/05/14 12:59:00;;;;;;;19.55;8.15;;;;;;;;;;5033378;28;20041;-62
2023/05/14 13:01:30;;;;;;;18.15;7.70;;;;;;;;;;4998360;28;20413;-62
2023/05/14 13:04:02;;;;;;;18.42;8.57;;;;;;;;;;4991203;28;20051;-62
2023/05/14 13:06:32;;;;;;;17.20;8.38;;;;;;;;;;4975048;28;20061;-63
2023/05/14 13:09:03;;;;;;;19.75;9.55;;;;;;;;;;4991190;28;20166;-62
2023/05/14 13:11:34;;;;;;;17.80;8.20;;;;;;;;;;4975527;28;20058;-62
2023/05/14 13:14:06;;;;;;;18.70;9.10;;;;;;;;;;4991426;28;20059;-63
2023/05/14 13:16:36;;;;;;;20.80;10.23;;;;;;;;;;4971658;28;20042;-62
2023/05/14 13:19:06;;;;;;;20.42;9.73;;;;;;;;;;4971851;28;20062;-62
2023/05/14 13:21:37;;;;;;;23.50;9.90;;;;;;;;;;4971668;28;20066;-63
2023/05/14 13:24:09;;;;;;;25.65;11.80;;;;;;;;;;4893289;28;20112;-62
2023/05/14 13:26:39;;;;;;;22.33;9.07;;;;;;;;;;4923916;28;20058;-62
2023/05/14 13:29:09;;;;;;;22.85;10.57;;;;;;;;;;4971679;28;20070;-62
2023/05/14 13:31:39;;;;;;;26.35;12.27;;;;;;;;;;4971905;28;20054;-62
2023/05/14 13:34:10;;;;;;;21.38;8.98;;;;;;;;;;4958159;28;20069;-63
2023/05/14 13:36:42;;;;;;;19.75;8.48;;;;;;;;;;4978430;28;20153;-62
2023/05/14 13:39:12;;;;;;;18.17;7.95;;;;;;;;;;5010618;28;20049;-62
2023/05/14 13:41:42;;;;;;;24.80;12.18;;;;;;;;;;5010476;28;20062;-61
2023/05/14 13:44:12;;;;;;;21.25;10.90;;;;;;;;;;5010419;28;20057;-62
2023/05/14 13:46:43;;;;;;;24.75;12.15;;;;;;;;;;5010116;28;20046;-62
2023/05/14 13:49:13;;;;;;;21.67;10.52;;;;;;;;;;5010362;28;20405;-62
2023/05/14 13:51:44;;;;;;;17.20;8.95;;;;;;;;;;5010171;28;20041;-63
2023/05/14 13:54:14;;;;;;;21.20;9.13;;;;;;;;;;5021186;28;20433;-61
2023/05/14 13:56:44;;;;;;;16.00;8.35;;;;;;;;;;4982732;28;20524;-62
2023/05/14 13:59:14;;;;;;;14.95;7.55;;;;;;;;;;5032493;28;20045;-62
2023/05/14 14:01:44;;;;;;;19.15;10.85;;;;;;;;;;4997535;28;20057;-62
2023/05/14 14:04:15;;;;;;;11.45;5.53;;;;;;;;;;4981237;28;20057;-63
2023/05/14 14:06:45;;;;;;;20.10;9.95;;;;;;;;;;5014771;28;20042;-63
2023/05/14 14:09:15;;;;;;;17.50;9.57;;;;;;;;;;4982092;28;20061;-62
2023/05/14 14:11:46;;;;;;;22.95;11.93;;;;;;;;;;4934036;28;20046;-62
2023/05/14 14:14:19;;;;;;;17.83;10.43;;;;;;;;;;4990055;28;20518;-62
2023/05/14 14:16:49;;;;;;;21.80;10.75;;;;;;;;;;4951417;29;20048;-62
2023/05/14 14:19:20;;;;;;;18.80;10.75;;;;;;;;;;4951384;29;20059;-62
2023/05/14 14:21:51;;;;;;;19.27;10.48;;;;;;;;;;4951464;29;20055;-63
2023/05/14 14:24:21;;;;;;;20.60;10.77;;;;;;;;;;4931925;29;20048;-61
2023/05/14 14:26:51;;;;;;;19.35;10.77;;;;;;;;;;4932149;29;20051;-62
2023/05/14 14:29:22;;;;;;;22.50;11.20;;;;;;;;;;4932026;29;20539;-62
2023/05/14 14:31:53;;;;;;;18.63;11.07;;;;;;;;;;4932363;29;20067;-62
2023/05/14 14:34:23;;;;;;;20.85;11.25;;;;;;;;;;4885112;29;20051;-63
2023/05/14 14:36:53;;;;;;;17.45;9.98;;;;;;;;;;4870838;29;20055;-62
2023/05/14 14:39:25;;;;;;;15.93;8.20;;;;;;;;;;4932007;29;20060;-62
2023/05/14 14:41:55;;;;;;;15.95;9.27;;;;;;;;;;4932030;29;20067;-62
2023/05/14 14:44:25;;;;;;;15.00;7.93;;;;;;;;;;4931895;29;20044;-62
2023/05/14 14:46:55;;;;;;;10.93;5.30;;;;;;;;;;4931686;29;20048;-63
2023/05/14 14:49:27;;;;;;;9.65;5.95;;;;;;;;;;4931949;29;20060;-62
2023/05/14 14:51:58;;;;;;;11.23;5.80;;;;;;;;;;4941694;29;20499;-62
2023/05/14 14:54:28;;;;;;;11.20;6.47;;;;;;;;;;4954573;28;20494;-62